Time;durP1;ratioP1;P1;durP2;ratioP2;P2;SDS_P1;SDS_P2;PMS_P1;PMS_P2;Temp;Humidity;BMP_temperature;BMP_pressure;BME280_temperature;BME280_humidity;BME280_pressure;Samples;Min_cycle;Max_cycle;Signal;HPM_P1;HPM_P2
2022/09/29 00:00:11;;;;;;;9.13;3.80;;;8.30;99.90;;;;;;5069979;28;20388;-54
2022/09/29 00:02:37;;;;;;;7.37;3.30;;;8.40;99.90;;;;;;5069974;28;20387;-55
2022/09/29 00:05:03;;;;;;;6.82;3.03;;;8.50;99.90;;;;;;5069240;28;20390;-55
2022/09/29 00:07:31;;;;;;;10.90;3.08;;;8.40;99.90;;;;;;5069083;28;20868;-55
2022/09/29 00:09:56;;;;;;;8.90;3.30;;;8.50;99.90;;;;;;5068521;28;20877;-55
2022/09/29 00:12:22;;;;;;;9.00;3.20;;;8.60;99.90;;;;;;5069554;28;20387;-55
2022/09/29 00:14:48;;;;;;;8.70;3.57;;;8.60;99.90;;;;;;5068885;28;20380;-55
2022/09/29 00:17:14;;;;;;;7.70;3.30;;;8.60;99.90;;;;;;5068983;28;20400;-54
2022/09/29 00:19:39;;;;;;;8.43;3.77;;;8.50;99.90;;;;;;5068921;28;20764;-55
2022/09/29 00:22:05;;;;;;;8.40;3.60;;;10.20;99.90;;;;;;5069075;28;20407;-54
2022/09/29 00:24:30;;;;;;;8.10;3.37;;;8.40;99.90;;;;;;5069718;28;20429;-54
2022/09/29 00:26:56;;;;;;;7.80;3.50;;;8.30;99.90;;;;;;5068819;28;20417;-55
2022/09/29 00:29:22;;;;;;;9.13;3.30;;;8.70;99.90;;;;;;5068931;28;20412;-55
2022/09/29 00:31:48;;;;;;;7.57;3.13;;;8.30;99.90;;;;;;5068612;28;20384;-55
2022/09/29 00:34:13;;;;;;;9.10;3.70;;;8.40;99.90;;;;;;5069153;28;20475;-55
2022/09/29 00:36:40;;;;;;;9.07;3.13;;;9.10;99.90;;;;;;5070583;28;20433;-55
2022/09/29 00:39:06;;;;;;;9.02;3.60;;;8.70;99.90;;;;;;5073020;28;20376;-55
2022/09/29 00:41:33;;;;;;;9.27;3.53;;;8.70;99.90;;;;;;5072728;28;20387;-55
2022/09/29 00:44:01;;;;;;;10.30;3.83;;;8.70;99.90;;;;;;5072120;28;20395;-55
2022/09/29 00:47:04;;;;;;;10.48;3.30;;;9.70;99.90;;;;;;5073157;28;20407;-54
2022/09/29 00:49:42;;;;;;;9.03;3.83;;;8.60;99.90;;;;;;5072258;28;20794;-55
2022/09/29 00:52:22;;;;;;;8.10;3.30;;;8.30;99.90;;;;;;5072825;28;20507;-52
2022/09/29 00:54:53;;;;;;;9.20;3.55;;;8.50;99.90;;;;;;5072061;28;20437;-55
2022/09/29 00:57:24;;;;;;;10.80;4.20;;;8.50;99.90;;;;;;5072512;28;20482;-55
2022/09/29 01:00:06;;;;;;;7.68;3.40;;;8.60;99.90;;;;;;5071663;28;20404;-55
2022/09/29 01:02:35;;;;;;;10.07;3.70;;;8.60;99.90;;;;;;5072421;28;20383;-54
2022/09/29 01:05:05;;;;;;;8.33;3.17;;;9.70;99.90;;;;;;5072067;28;20367;-54
2022/09/29 01:07:32;;;;;;;9.23;3.30;;;8.50;99.90;;;;;;5072723;28;20482;-54
2022/09/29 01:09:59;;;;;;;8.07;3.40;;;8.50;99.90;;;;;;5071710;28;20384;-55
2022/09/29 01:12:25;;;;;;;7.75;3.25;;;9.90;99.90;;;;;;5072569;28;20376;-54
2022/09/29 01:14:53;;;;;;;8.27;3.50;;;9.90;99.90;;;;;;5071704;28;20383;-54
2022/09/29 01:17:20;;;;;;;8.02;3.40;;;8.40;99.90;;;;;;5072464;28;20418;-55
2022/09/29 01:20:11;;;;;;;10.98;3.80;;;10.10;99.90;;;;;;5071664;28;20382;-55
2022/09/29 01:22:52;;;;;;;9.40;3.30;;;8.50;99.90;;;;;;5072319;28;20384;-54
2022/09/29 01:25:35;;;;;;;8.37;3.60;;;8.40;99.90;;;;;;5072137;28;20717;-55
2022/09/29 01:28:46;;;;;;;8.45;3.90;;;8.60;99.90;;;;;;5071704;28;20400;-54
2022/09/29 01:31:34;;;;;;;8.55;3.75;;;8.50;99.90;;;;;;5071809;28;20494;-54
2022/09/29 01:34:33;;;;;;;8.23;3.22;;;8.60;99.90;;;;;;5071668;28;20725;-54
2022/09/29 01:37:15;;;;;;;10.10;3.78;;;8.50;99.90;;;;;;5037542;28;20412;-55
2022/09/29 01:39:55;;;;;;;9.90;4.05;;;8.50;99.90;;;;;;5071475;28;20888;-55
2022/09/29 01:42:31;;;;;;;11.10;4.05;;;8.60;99.90;;;;;;5071844;28;20749;-55
2022/09/29 01:45:04;;;;;;;9.57;3.50;;;10.10;99.90;;;;;;5071249;28;20423;-55
2022/09/29 01:47:44;;;;;;;7.80;3.60;;;8.60;99.90;;;;;;5071571;28;20364;-55
2022/09/29 01:50:16;;;;;;;9.38;3.50;;;8.70;99.90;;;;;;5071324;28;20859;-55
2022/09/29 01:52:45;;;;;;;7.80;3.63;;;8.70;99.90;;;;;;5070881;28;20837;-55
2022/09/29 01:55:16;;;;;;;9.07;3.20;;;8.70;99.90;;;;;;5071577;28;20376;-54
2022/09/29 01:58:01;;;;;;;9.05;3.58;;;9.90;99.90;;;;;;5070802;28;20435;-55
2022/09/29 02:00:30;;;;;;;7.03;3.20;;;8.80;99.90;;;;;;5071547;28;20403;-54
2022/09/29 02:03:29;;;;;;;10.73;3.72;;;8.70;99.90;;;;;;5070930;28;20422;-55
2022/09/29 02:05:59;;;;;;;11.10;4.20;;;8.70;99.90;;;;;;5070672;28;20380;-54
2022/09/29 02:08:32;;;;;;;8.68;3.50;;;9.50;99.90;;;;;;5071391;28;20382;-54
2022/09/29 02:11:11;;;;;;;11.52;3.83;;;8.80;99.90;;;;;;5071078;28;20383;-55
2022/09/29 02:13:54;;;;;;;12.50;3.80;;;8.80;99.90;;;;;;5071042;28;20391;-55
2022/09/29 02:16:28;;;;;;;7.82;3.40;;;8.90;99.90;;;;;;5071297;28;20420;-55
2022/09/29 02:19:17;;;;;;;11.73;4.00;;;9.10;99.90;;;;;;5071120;28;20437;-55
2022/09/29 02:21:43;;;;;;;10.50;4.10;;;9.20;99.90;;;;;;5069573;28;20396;-55
2022/09/29 02:24:10;;;;;;;8.93;4.10;;;9.30;99.90;;;;;;5070981;28;20380;-55
2022/09/29 02:26:36;;;;;;;9.95;4.10;;;9.40;99.90;;;;;;5071113;28;20483;-55
2022/09/29 02:29:03;;;;;;;8.30;4.07;;;9.40;99.90;;;;;;5070034;28;20956;-55
2022/09/29 02:31:30;;;;;;;11.35;4.10;;;9.90;99.90;;;;;;5070746;28;20455;-54
2022/09/29 02:33:56;;;;;;;10.25;4.25;;;9.30;99.90;;;;;;5070017;28;20388;-55
2022/09/29 02:36:41;;;;;;;9.55;3.97;;;9.30;99.90;;;;;;5052884;28;20801;-54
2022/09/29 02:39:33;;;;;;;9.95;4.40;;;9.30;99.90;;;;;;5070339;28;20375;-55
2022/09/29 02:42:20;;;;;;;9.40;5.05;;;9.40;99.90;;;;;;5070017;28;20907;-54
2022/09/29 02:45:11;;;;;;;9.43;4.20;;;9.30;99.90;;;;;;5069933;28;21198;-55
2022/09/29 02:48:12;;;;;;;8.63;4.20;;;9.30;99.90;;;;;;5070362;28;20392;-54
2022/09/29 02:50:52;;;;;;;10.10;4.15;;;10.10;99.90;;;;;;5070489;28;20446;-54
2022/09/29 02:53:37;;;;;;;10.30;4.80;;;9.40;99.90;;;;;;5070646;28;20387;-54
2022/09/29 02:56:35;;;;;;;10.43;4.05;;;9.70;99.90;;;;;;5069992;28;20670;-54
2022/09/29 02:59:14;;;;;;;9.73;4.30;;;9.30;99.90;;;;;;5024678;28;20522;-54
2022/09/29 03:01:52;;;;;;;8.82;4.10;;;9.20;99.90;;;;;;5070169;28;20439;-54
2022/09/29 03:04:20;;;;;;;8.70;4.25;;;9.20;99.90;;;;;;5070585;28;20379;-55
2022/09/29 03:06:46;;;;;;;12.75;4.93;;;9.30;99.90;;;;;;5069688;28;20941;-55
2022/09/29 03:09:12;;;;;;;9.63;4.70;;;9.30;99.90;;;;;;5070760;28;20371;-54
2022/09/29 03:11:38;;;;;;;9.80;4.40;;;9.30;99.90;;;;;;5070775;28;20383;-54
2022/09/29 03:14:05;;;;;;;9.02;3.97;;;9.20;99.90;;;;;;5070068;28;20902;-55
2022/09/29 03:16:32;;;;;;;8.52;4.15;;;9.20;99.90;;;;;;5070192;28;20379;-54
2022/09/29 03:18:57;;;;;;;8.43;3.97;;;9.30;99.90;;;;;;5069990;28;20380;-54
2022/09/29 03:21:23;;;;;;;11.05;4.35;;;9.90;99.90;;;;;;5069506;28;20876;-54
2022/09/29 03:23:49;;;;;;;9.50;4.33;;;9.40;99.90;;;;;;5068997;28;20387;-55
2022/09/29 03:26:14;;;;;;;9.48;3.97;;;9.40;99.90;;;;;;5069826;28;20470;-55
2022/09/29 03:28:40;;;;;;;9.20;3.97;;;9.50;99.90;;;;;;5069807;28;20479;-54
2022/09/29 03:31:08;;;;;;;10.45;4.60;;;9.50;99.90;;;;;;5069036;28;20404;-54
2022/09/29 03:33:38;;;;;;;7.83;3.90;;;9.60;99.90;;;;;;5070107;28;20375;-54
2022/09/29 03:36:05;;;;;;;11.40;4.60;;;9.40;99.90;;;;;;5069508;28;20475;-54
2022/09/29 03:38:32;;;;;;;9.27;3.97;;;9.50;99.90;;;;;;5069403;28;20745;-55
2022/09/29 03:40:57;;;;;;;9.02;4.10;;;9.90;99.90;;;;;;5069601;28;20521;-55
2022/09/29 03:43:23;;;;;;;9.30;3.90;;;9.40;99.90;;;;;;5069615;28;20475;-55
2022/09/29 03:45:50;;;;;;;9.73;4.93;;;9.40;99.90;;;;;;5069402;28;20372;-55
2022/09/29 03:48:17;;;;;;;10.38;4.93;;;9.50;99.90;;;;;;5069947;28;20387;-54
2022/09/29 03:50:47;;;;;;;10.05;5.30;;;9.60;99.90;;;;;;5069411;28;20499;-54
2022/09/29 03:53:13;;;;;;;10.00;4.50;;;9.50;99.90;;;;;;5069678;28;20376;-54
2022/09/29 03:55:39;;;;;;;11.93;4.97;;;9.50;99.90;;;;;;5069970;28;20384;-54
2022/09/29 03:58:05;;;;;;;9.60;4.75;;;9.40;99.90;;;;;;5068830;28;20422;-55
2022/09/29 04:00:31;;;;;;;11.10;5.55;;;9.30;99.90;;;;;;5069160;28;20399;-54
2022/09/29 04:02:58;;;;;;;14.03;6.43;;;9.40;99.90;;;;;;5069143;28;20383;-55
2022/09/29 04:05:24;;;;;;;14.07;6.00;;;9.40;99.90;;;;;;5070003;28;20379;-55
2022/09/29 04:07:49;;;;;;;13.80;6.30;;;9.40;99.90;;;;;;5068921;28;20455;-55
2022/09/29 04:10:15;;;;;;;11.70;5.72;;;9.50;99.90;;;;;;5069492;28;20384;-54
2022/09/29 04:12:40;;;;;;;11.18;5.00;;;9.30;99.90;;;;;;5073219;28;20474;-54
2022/09/29 04:15:06;;;;;;;11.17;4.70;;;9.20;99.90;;;;;;5072839;28;20436;-54
2022/09/29 04:17:32;;;;;;;11.70;5.00;;;9.30;99.90;;;;;;5074002;28;20457;-54
2022/09/29 04:19:58;;;;;;;10.23;5.05;;;9.20;99.90;;;;;;5072803;28;20394;-55
2022/09/29 04:22:23;;;;;;;10.88;5.00;;;9.00;99.90;;;;;;5073283;28;20383;-55
2022/09/29 04:24:50;;;;;;;10.40;5.00;;;8.90;99.90;;;;;;5073157;28;20368;-54
2022/09/29 04:27:17;;;;;;;17.60;6.20;;;8.90;99.90;;;;;;5073420;28;20410;-54
2022/09/29 04:29:43;;;;;;;10.33;5.50;;;9.90;99.90;;;;;;5072778;28;20431;-55
2022/09/29 04:32:09;;;;;;;11.48;5.20;;;8.70;99.90;;;;;;5072622;28;20422;-54
2022/09/29 04:34:34;;;;;;;14.57;5.32;;;8.60;99.90;;;;;;5072954;28;20380;-55
2022/09/29 04:37:00;;;;;;;13.13;5.67;;;8.60;99.90;;;;;;5072082;28;20407;-54
2022/09/29 04:39:26;;;;;;;12.18;5.68;;;8.50;99.90;;;;;;5073271;28;20379;-54
2022/09/29 04:41:52;;;;;;;13.50;5.80;;;8.50;99.90;;;;;;5072624;28;20748;-55
2022/09/29 04:44:21;;;;;;;23.30;9.13;;;9.30;99.90;;;;;;5072991;28;20384;-54
2022/09/29 04:46:48;;;;;;;27.83;14.43;;;8.60;99.90;;;;;;5072889;28;20663;-55
2022/09/29 04:49:13;;;;;;;13.02;6.72;;;8.60;99.90;;;;;;5072310;28;20380;-55
2022/09/29 04:51:39;;;;;;;16.23;5.50;;;8.50;99.90;;;;;;5073114;28;20851;-54
2022/09/29 04:54:05;;;;;;;15.93;7.60;;;8.50;99.90;;;;;;5072729;28;20390;-54
2022/09/29 04:56:30;;;;;;;16.67;7.28;;;9.00;99.90;;;;;;5072509;28;20867;-54
2022/09/29 04:58:57;;;;;;;12.48;6.70;;;8.40;99.90;;;;;;5054025;28;20910;-55
2022/09/29 05:01:23;;;;;;;14.77;6.90;;;8.40;99.90;;;;;;5073173;28;20463;-54
2022/09/29 05:03:49;;;;;;;13.25;7.38;;;8.40;99.90;;;;;;5072517;28;20463;-54
2022/09/29 05:06:14;;;;;;;13.55;6.80;;;8.70;99.90;;;;;;5072188;28;20396;-52
2022/09/29 05:08:40;;;;;;;12.67;6.50;;;8.30;99.90;;;;;;5072462;28;20379;-52
2022/09/29 05:11:07;;;;;;;13.07;6.10;;;8.20;99.90;;;;;;5071638;28;20372;-52
2022/09/29 05:13:33;;;;;;;12.63;6.00;;;8.20;99.90;;;;;;5072889;28;20466;-53
2022/09/29 05:15:59;;;;;;;14.67;6.37;;;8.20;99.90;;;;;;5071752;28;20482;-52
2022/09/29 05:18:26;;;;;;;13.68;5.97;;;8.20;99.90;;;;;;5054204;28;20753;-52
2022/09/29 05:20:52;;;;;;;12.20;6.30;;;8.80;99.90;;;;;;5072266;28;20414;-52
2022/09/29 05:23:17;;;;;;;11.53;5.90;;;8.30;99.90;;;;;;5071531;28;20372;-52
2022/09/29 05:25:43;;;;;;;11.65;5.68;;;8.30;99.90;;;;;;5072608;28;20384;-52
2022/09/29 05:28:14;;;;;;;12.63;5.90;;;8.30;99.90;;;;;;5071421;28;20388;-52
2022/09/29 05:30:40;;;;;;;12.95;5.72;;;8.30;99.90;;;;;;5071475;28;20407;-54
2022/09/29 05:33:05;;;;;;;12.95;5.20;;;9.60;99.90;;;;;;5071787;28;20395;-54
2022/09/29 05:35:31;;;;;;;12.50;5.80;;;8.30;99.90;;;;;;5054347;28;20384;-54
2022/09/29 05:37:57;;;;;;;13.40;5.95;;;8.30;99.90;;;;;;5071646;28;20769;-55
2022/09/29 05:40:25;;;;;;;13.30;5.50;;;8.30;99.90;;;;;;5071715;28;20873;-55
2022/09/29 05:42:51;;;;;;;11.95;5.68;;;8.40;99.90;;;;;;5071792;28;20387;-55
2022/09/29 05:45:17;;;;;;;11.73;6.07;;;9.60;99.90;;;;;;5072511;28;20394;-54
2022/09/29 05:47:44;;;;;;;10.43;5.63;;;8.40;99.90;;;;;;5071887;28;20387;-55
2022/09/29 05:50:11;;;;;;;12.93;5.50;;;8.40;99.90;;;;;;5071260;28;20387;-52
2022/09/29 05:52:38;;;;;;;14.35;5.30;;;8.30;99.90;;;;;;5071368;28;20461;-52
2022/09/29 05:55:04;;;;;;;12.23;5.85;;;8.50;99.90;;;;;;5070620;28;20467;-52
2022/09/29 05:57:30;;;;;;;10.98;5.53;;;8.40;99.90;;;;;;5071366;28;20404;-55
2022/09/29 05:59:56;;;;;;;11.85;5.75;;;8.50;99.90;;;;;;5070809;28;20431;-55
2022/09/29 06:02:21;;;;;;;12.90;5.60;;;9.00;99.90;;;;;;5072104;28;20434;-55
2022/09/29 06:04:48;;;;;;;15.50;5.70;;;9.30;99.90;;;;;;5064562;28;20399;-55
2022/09/29 06:07:13;;;;;;;11.60;6.00;;;8.70;99.90;;;;;;5072224;28;20410;-55
2022/09/29 06:09:39;;;;;;;14.27;5.55;;;8.80;99.90;;;;;;5071464;28;20791;-55
2022/09/29 06:12:05;;;;;;;15.73;6.30;;;8.90;99.90;;;;;;5071030;28;20467;-55
2022/09/29 06:14:31;;;;;;;12.43;6.27;;;9.00;99.90;;;;;;5071338;28;20415;-54
2022/09/29 06:16:56;;;;;;;14.10;6.50;;;9.10;99.90;;;;;;5070734;28;20450;-55
2022/09/29 06:19:22;;;;;;;12.20;5.97;;;9.20;99.90;;;;;;5071641;28;20372;-55
2022/09/29 06:21:48;;;;;;;12.30;5.72;;;9.30;99.90;;;;;;5070446;28;20730;-55
2022/09/29 06:24:13;;;;;;;11.77;6.10;;;9.40;99.90;;;;;;5070606;28;20397;-58
2022/09/29 06:26:39;;;;;;;15.60;5.97;;;9.70;99.90;;;;;;5071689;28;20386;-55
2022/09/29 06:29:04;;;;;;;13.15;5.60;;;9.70;99.90;;;;;;5070205;28;20807;-55
2022/09/29 06:31:31;;;;;;;15.30;6.00;;;9.70;99.90;;;;;;5071024;28;20845;-55
2022/09/29 06:33:58;;;;;;;10.52;5.75;;;9.60;99.90;;;;;;5070372;28;20823;-55
2022/09/29 06:39:14;;;;;;;13.18;6.50;;;9.70;99.90;;;;;;5070837;28;20488;-55
2022/09/29 06:41:47;;;;;;;14.93;7.10;;;9.70;99.90;;;;;;5072541;28;20899;-54
2022/09/29 06:44:13;;;;;;;12.85;6.75;;;9.80;99.90;;;;;;5090305;28;20485;-54
2022/09/29 06:46:39;;;;;;;14.68;5.45;;;11.20;96.40;;;;;;5069084;28;20462;-55
2022/09/29 06:49:05;;;;;;;10.77;5.93;;;10.10;76.10;;;;;;5069482;28;20958;-55
2022/09/29 06:51:31;;;;;;;12.07;5.78;;;10.20;34.90;;;;;;5070208;28;20376;-55
2022/09/29 06:53:56;;;;;;;20.75;6.35;;;10.30;20.80;;;;;;5069453;28;20433;-55
2022/09/29 06:56:22;;;;;;;12.10;5.70;;;10.30;4.00;;;;;;5070066;28;20380;-55
2022/09/29 06:58:47;;;;;;;11.00;5.80;;;10.60;10.60;;;;;;5090379;28;20731;-55
2022/09/29 07:01:13;;;;;;;12.85;5.82;;;10.90;12.30;;;;;;5090181;28;20443;-53
2022/09/29 07:03:40;;;;;;;10.50;5.35;;;11.40;1.00;;;;;;5090077;28;20366;-52
2022/09/29 07:06:07;;;;;;;11.77;5.10;;;12.00;1.00;;;;;;5089213;28;20430;-52
2022/09/29 07:08:38;;;;;;;12.40;6.10;;;12.30;1.00;;;;;;5090763;28;20893;-52
2022/09/29 07:11:06;;;;;;;13.57;6.20;;;12.40;99.90;;;;;;5089444;28;20447;-52
2022/09/29 07:13:33;;;;;;;12.75;6.00;;;12.50;1.00;;;;;;5084173;28;20480;-53
2022/09/29 07:16:05;;;;;;;17.20;6.50;;;12.50;99.90;;;;;;5069694;28;20829;-53
2022/09/29 07:18:32;;;;;;;12.05;5.85;;;12.30;99.90;;;;;;5069848;28;20460;-52
2022/09/29 07:20:58;;;;;;;13.05;6.10;;;12.30;99.90;;;;;;5068835;28;20399;-52
2022/09/29 07:23:24;;;;;;;11.90;6.10;;;12.40;1.00;;;;;;5070022;28;20380;-52
2022/09/29 07:25:50;;;;;;;12.47;6.00;;;12.10;99.90;;;;;;5069149;28;20840;-53
2022/09/29 07:28:16;;;;;;;14.07;6.03;;;11.80;1.00;;;;;;5069627;28;20380;-52
2022/09/29 07:30:42;;;;;;;13.20;6.80;;;11.90;1.00;;;;;;5069453;28;20506;-52
2022/09/29 07:33:07;;;;;;;15.63;6.17;;;11.80;1.00;;;;;;5069138;28;20380;-52
2022/09/29 07:35:33;;;;;;;12.77;6.05;;;11.90;1.00;;;;;;5069664;28;20371;-52
2022/09/29 07:37:58;;;;;;;11.85;5.75;;;11.90;1.00;;;;;;5069029;28;20404;-53
2022/09/29 07:40:25;;;;;;;11.33;6.50;;;11.80;1.00;;;;;;5070103;28;20422;-53
2022/09/29 07:42:50;;;;;;;12.63;6.60;;;11.90;1.00;;;;;;5082028;28;20435;-53
2022/09/29 07:45:17;;;;;;;12.55;6.32;;;12.10;1.00;;;;;;5090235;28;20440;-53
2022/09/29 07:47:42;;;;;;;12.20;6.28;;;12.00;1.00;;;;;;5089401;28;20385;-53
2022/09/29 07:50:08;;;;;;;16.80;8.60;;;12.00;1.00;;;;;;5088829;28;20457;-53
2022/09/29 07:52:34;;;;;;;11.48;5.93;;;12.10;99.90;;;;;;5089584;28;20371;-53
2022/09/29 07:55:00;;;;;;;13.20;6.17;;;12.20;1.00;;;;;;5089239;28;20436;-53
2022/09/29 07:57:25;;;;;;;12.18;5.80;;;12.40;1.00;;;;;;5089790;28;20846;-52
2022/09/29 07:59:53;;;;;;;15.40;6.90;;;12.40;1.00;;;;;;5071130;28;20478;-53
2022/09/29 08:02:19;;;;;;;12.90;5.87;;;12.60;1.00;;;;;;5089434;28;20711;-53
2022/09/29 08:04:45;;;;;;;13.10;6.17;;;12.80;99.90;;;;;;5089940;28;20389;-53
2022/09/29 08:07:11;;;;;;;14.75;7.15;;;12.90;1.00;;;;;;5088578;28;20797;-53
2022/09/29 08:09:36;;;;;;;10.30;5.90;;;13.30;91.20;;;;;;5089815;28;20385;-53
2022/09/29 08:12:02;;;;;;;12.70;5.70;;;13.30;99.90;;;;;;5088824;28;20384;-53
2022/09/29 08:14:28;;;;;;;12.60;5.93;;;13.20;1.00;;;;;;5076414;28;20395;-53
2022/09/29 08:16:53;;;;;;;11.13;5.37;;;13.10;1.00;;;;;;5068238;28;20489;-53
2022/09/29 08:19:19;;;;;;;11.35;5.70;;;12.90;99.90;;;;;;5069060;28;20870;-53
2022/09/29 08:21:48;;;;;;;13.30;5.60;;;13.00;99.90;;;;;;5069602;28;20520;-53
2022/09/29 08:24:16;;;;;;;12.10;6.28;;;13.10;99.90;;;;;;5068517;28;20390;-53
2022/09/29 08:26:42;;;;;;;11.73;6.05;;;13.40;46.10;;;;;;5068933;28;20420;-53
2022/09/29 08:29:08;;;;;;;11.47;5.47;;;13.60;99.90;;;;;;5068500;28;21123;-53
2022/09/29 08:31:36;;;;;;;11.55;5.70;;;13.90;99.90;;;;;;5051473;28;20429;-53
2022/09/29 08:34:02;;;;;;;9.90;4.78;;;14.20;1.00;;;;;;5068823;28;20383;-53
2022/09/29 08:36:28;;;;;;;12.20;5.67;;;14.40;1.00;;;;;;5069601;28;20417;-53
2022/09/29 08:38:55;;;;;;;12.73;5.40;;;14.30;1.00;;;;;;5068034;28;20392;-55
2022/09/29 08:41:27;;;;;;;11.75;5.40;;;14.40;99.90;;;;;;5069669;28;20376;-55
2022/09/29 08:43:58;;;;;;;12.25;4.85;;;14.60;99.90;;;;;;5068740;28;20439;-55
2022/09/29 08:46:34;;;;;;;10.27;5.20;;;14.70;99.90;;;;;;5069596;28;20470;-55
2022/09/29 08:49:05;;;;;;;9.68;4.78;;;15.20;1.00;;;;;;5068511;28;20376;-55
2022/09/29 08:51:36;;;;;;;10.93;5.03;;;15.50;1.00;;;;;;5068946;28;20399;-55
2022/09/29 08:54:25;;;;;;;9.95;5.00;;;15.60;1.00;;;;;;5068960;28;20433;-55
2022/09/29 08:56:50;;;;;;;9.60;4.65;;;15.90;99.90;;;;;;5051501;28;20765;-53
2022/09/29 08:59:16;;;;;;;9.50;4.40;;;16.90;20.20;;;;;;5072506;28;20383;-53
2022/09/29 09:02:02;;;;;;;8.63;3.90;;;17.60;1.00;;;;;;5072583;28;20394;-53
2022/09/29 09:04:50;;;;;;;10.10;4.63;;;17.60;1.00;;;;;;5072681;28;20370;-53
2022/09/29 09:07:50;;;;;;;8.75;3.60;;;17.50;1.00;;;;;;5072003;28;20384;-53
2022/09/29 09:10:25;;;;;;;8.20;3.00;;;17.60;1.00;;;;;;5072247;28;20380;-54
2022/09/29 09:12:50;;;;;;;8.60;3.88;;;19.00;1.00;;;;;;5072242;28;20380;-54
2022/09/29 09:15:35;;;;;;;12.33;3.83;;;20.50;1.00;;;;;;5071929;28;20401;-54
2022/09/29 09:18:29;;;;;;;7.93;4.10;;;20.90;99.90;;;;;;5071626;28;20418;-54
2022/09/29 09:21:07;;;;;;;10.15;4.93;;;21.60;99.90;;;;;;5071307;28;20384;-54
2022/09/29 09:23:45;;;;;;;8.50;3.97;;;21.20;99.90;;;;;;5072440;28;20384;-54
2022/09/29 09:26:12;;;;;;;8.77;3.85;;;20.70;99.90;;;;;;5053389;28;20388;-54
2022/09/29 09:28:57;;;;;;;10.40;4.60;;;20.60;99.90;;;;;;5071687;28;20908;-54
2022/09/29 09:31:31;;;;;;;8.27;4.00;;;20.60;99.90;;;;;;5071935;28;20457;-54
2022/09/29 09:34:01;;;;;;;8.98;4.15;;;20.20;99.90;;;;;;5070926;28;20388;-54
2022/09/29 09:36:40;;;;;;;7.50;3.00;;;19.70;99.90;;;;;;5072136;28;20387;-54
2022/09/29 09:39:19;;;;;;;8.88;3.10;;;19.30;99.90;;;;;;5070743;28;20400;-54
2022/09/29 09:41:49;;;;;;;8.75;3.55;;;18.70;99.90;;;;;;5072082;28;20376;-54
2022/09/29 09:44:38;;;;;;;7.97;2.80;;;18.30;99.90;;;;;;5071312;28;20367;-54
2022/09/29 09:47:26;;;;;;;7.47;2.70;;;17.70;99.90;;;;;;5070885;28;20718;-54
2022/09/29 09:50:16;;;;;;;6.75;2.50;;;17.10;99.90;;;;;;5071037;28;20397;-53
2022/09/29 09:52:50;;;;;;;9.77;3.40;;;16.70;99.90;;;;;;5061389;28;20407;-55
2022/09/29 09:55:19;;;;;;;8.35;3.30;;;16.20;99.90;;;;;;5071745;28;20447;-55
2022/09/29 09:57:51;;;;;;;9.90;3.00;;;16.40;99.90;;;;;;5071990;28;20446;-55
2022/09/29 10:00:31;;;;;;;7.90;3.00;;;16.40;99.90;;;;;;5071189;28;20388;-55
2022/09/29 10:03:02;;;;;;;9.18;4.00;;;16.30;99.90;;;;;;5071099;28;20395;-55
2022/09/29 10:05:39;;;;;;;8.40;3.38;;;16.30;99.90;;;;;;5071756;28;20368;-55
2022/09/29 10:08:24;;;;;;;9.35;4.20;;;16.40;99.90;;;;;;5070076;28;20392;-55
2022/09/29 10:10:51;;;;;;;7.68;3.40;;;16.90;99.90;;;;;;5070926;28;20455;-56
2022/09/29 10:13:17;;;;;;;8.40;3.00;;;17.00;99.90;;;;;;5071435;28;20478;-55
2022/09/29 10:15:52;;;;;;;8.90;2.80;;;17.50;99.90;;;;;;5071164;28;20408;-55
2022/09/29 10:18:34;;;;;;;7.53;3.00;;;17.50;99.90;;;;;;5070937;28;20547;-55
2022/09/29 10:21:00;;;;;;;7.90;3.20;;;17.30;99.90;;;;;;5070534;28;20381;-55
2022/09/29 10:23:32;;;;;;;9.30;3.47;;;17.20;99.90;;;;;;5070843;28;20467;-55
2022/09/29 10:26:15;;;;;;;8.20;3.40;;;17.00;99.90;;;;;;5069758;28;20895;-55
2022/09/29 10:28:49;;;;;;;10.20;3.88;;;17.30;99.90;;;;;;5070751;28;20876;-55
2022/09/29 10:31:21;;;;;;;10.10;3.85;;;17.00;99.90;;;;;;5070705;28;20414;-55
2022/09/29 10:33:55;;;;;;;9.40;3.60;;;16.90;99.90;;;;;;5070719;28;20376;-53
2022/09/29 10:36:23;;;;;;;8.05;3.40;;;17.10;99.90;;;;;;5070715;28;20434;-53
2022/09/29 10:38:51;;;;;;;9.43;3.70;;;17.00;99.90;;;;;;5070684;28;20795;-54
2022/09/29 10:41:18;;;;;;;9.43;3.60;;;16.80;99.90;;;;;;5070420;28;20871;-53
2022/09/29 10:43:46;;;;;;;12.00;4.10;;;16.90;99.90;;;;;;5070352;28;20372;-53
2022/09/29 10:46:29;;;;;;;8.20;3.42;;;16.90;99.90;;;;;;5070655;28;20611;-54
2022/09/29 10:49:23;;;;;;;14.35;4.05;;;16.90;99.90;;;;;;5069643;28;20402;-54
2022/09/29 10:51:54;;;;;;;10.00;3.63;;;17.20;99.90;;;;;;5070637;28;20433;-53
2022/09/29 10:54:24;;;;;;;8.75;3.38;;;17.40;99.90;;;;;;5070833;28;20895;-53
2022/09/29 10:56:51;;;;;;;10.85;3.75;;;17.90;99.90;;;;;;5070128;28;20438;-54
2022/09/29 10:59:18;;;;;;;7.82;3.22;;;18.00;99.90;;;;;;5069811;28;20420;-54
2022/09/29 11:01:54;;;;;;;7.45;3.00;;;18.00;99.90;;;;;;5070164;28;20479;-54
2022/09/29 11:04:31;;;;;;;9.38;3.28;;;18.20;99.90;;;;;;5070504;28;20384;-54
2022/09/29 11:07:09;;;;;;;9.57;3.40;;;18.50;99.90;;;;;;5069831;28;20391;-54
2022/09/29 11:09:38;;;;;;;6.60;2.60;;;18.80;99.90;;;;;;5070040;28;20384;-54
2022/09/29 11:12:04;;;;;;;8.75;3.00;;;19.20;99.90;;;;;;5068987;28;20409;-54
2022/09/29 11:14:36;;;;;;;8.20;3.30;;;19.10;99.90;;;;;;5069605;28;20376;-53
2022/09/29 11:17:22;;;;;;;7.53;2.80;;;19.30;99.90;;;;;;5069496;28;20534;-54
2022/09/29 11:19:49;;;;;;;7.60;2.80;;;19.00;99.90;;;;;;5069941;28;20382;-53
2022/09/29 11:22:52;;;;;;;7.90;3.10;;;19.30;99.90;;;;;;5068218;28;20437;-54
2022/09/29 11:25:32;;;;;;;7.75;3.20;;;19.20;99.90;;;;;;5069618;28;20459;-54
2022/09/29 11:28:00;;;;;;;7.57;2.97;;;18.90;99.90;;;;;;5068598;28;20861;-54
2022/09/29 11:30:43;;;;;;;7.00;2.80;;;18.70;99.90;;;;;;5069333;28;20411;-53
2022/09/29 11:33:17;;;;;;;7.38;2.70;;;18.60;99.90;;;;;;5068377;28;20445;-54
2022/09/29 11:36:11;;;;;;;8.52;2.80;;;18.30;99.90;;;;;;5069662;28;20372;-54
2022/09/29 11:38:47;;;;;;;6.90;2.20;;;18.40;99.90;;;;;;5069661;28;20407;-54
2022/09/29 11:41:34;;;;;;;7.10;2.50;;;18.20;99.90;;;;;;5069316;28;20388;-54
2022/09/29 11:44:07;;;;;;;6.88;2.40;;;18.10;99.90;;;;;;5069735;28;20380;-54
2022/09/29 11:47:02;;;;;;;9.18;2.50;;;17.80;99.90;;;;;;5051904;28;20402;-53
2022/09/29 11:49:27;;;;;;;7.90;2.15;;;18.20;99.90;;;;;;5070083;28;20394;-54
2022/09/29 11:52:25;;;;;;;6.70;2.20;;;18.40;99.90;;;;;;5069269;28;20372;-54
2022/09/29 11:55:15;;;;;;;7.72;2.40;;;18.20;99.90;;;;;;5069432;28;20771;-53
2022/09/29 11:57:50;;;;;;;6.90;2.08;;;17.90;99.90;;;;;;5070024;28;20844;-53
2022/09/29 12:00:19;;;;;;;6.72;2.30;;;17.80;99.90;;;;;;5069262;28;21232;-53
2022/09/29 12:03:20;;;;;;;8.05;2.30;;;17.70;99.90;;;;;;5068891;28;20399;-54
2022/09/29 12:06:15;;;;;;;6.30;1.80;;;17.90;99.90;;;;;;5069547;28;20387;-53
2022/09/29 12:09:02;;;;;;;22.73;2.85;;;18.10;99.90;;;;;;5069917;28;20490;-54
2022/09/29 12:12:10;;;;;;;6.10;2.10;;;18.10;99.90;;;;;;5069392;28;20713;-53
2022/09/29 12:15:04;;;;;;;7.10;2.10;;;17.90;99.90;;;;;;5020188;28;20386;-54
2022/09/29 12:17:37;;;;;;;6.90;2.28;;;18.00;99.90;;;;;;5049601;28;20425;-54
2022/09/29 12:20:13;;;;;;;7.82;2.53;;;18.20;99.90;;;;;;5048562;28;20440;-54
2022/09/29 12:22:39;;;;;;;8.43;2.60;;;17.80;99.90;;;;;;5049834;28;20438;-54
2022/09/29 12:25:12;;;;;;;8.50;2.85;;;17.70;99.90;;;;;;5048886;28;20549;-54
2022/09/29 12:27:41;;;;;;;6.45;2.55;;;17.70;99.90;;;;;;5049297;28;20421;-53
2022/09/29 12:30:28;;;;;;;7.50;2.83;;;17.60;99.90;;;;;;5048204;28;20406;-54
2022/09/29 12:32:57;;;;;;;7.10;2.70;;;17.70;99.90;;;;;;5050462;28;20774;-54
2022/09/29 12:35:28;;;;;;;8.27;2.45;;;17.60;99.90;;;;;;5052762;28;20863;-53
2022/09/29 12:38:19;;;;;;;9.18;2.90;;;17.50;99.90;;;;;;5053034;28;20404;-53
2022/09/29 12:41:15;;;;;;;6.93;2.40;;;17.10;99.90;;;;;;5053352;28;20870;-53
2022/09/29 12:43:57;;;;;;;6.40;2.30;;;17.00;99.90;;;;;;5052946;28;20413;-53
2022/09/29 12:46:46;;;;;;;8.80;3.00;;;17.30;99.90;;;;;;5052818;28;20439;-53
2022/09/29 12:49:28;;;;;;;6.10;2.30;;;17.70;99.90;;;;;;5052764;28;20396;-53
2022/09/29 12:51:56;;;;;;;7.00;2.20;;;17.60;99.90;;;;;;5052663;28;20401;-54
2022/09/29 12:54:34;;;;;;;10.15;2.38;;;17.40;99.90;;;;;;5053258;28;20750;-54
2022/09/29 12:57:19;;;;;;;6.63;2.30;;;17.30;99.90;;;;;;5051993;28;20417;-53
2022/09/29 12:59:58;;;;;;;7.07;2.30;;;17.20;99.90;;;;;;5052618;28;20708;-54
2022/09/29 13:02:48;;;;;;;8.80;3.20;;;17.10;99.90;;;;;;5053425;28;20784;-53
2022/09/29 13:05:46;;;;;;;8.85;2.85;;;17.10;99.90;;;;;;5052320;28;20384;-55
2022/09/29 13:08:39;;;;;;;8.98;2.50;;;17.00;99.90;;;;;;5052053;28;20385;-56
2022/09/29 13:11:25;;;;;;;7.00;2.40;;;16.90;99.90;;;;;;5028480;28;20389;-56
2022/09/29 13:14:13;;;;;;;10.52;2.50;;;16.70;99.90;;;;;;5060474;28;20904;-55
2022/09/29 13:16:53;;;;;;;6.45;2.25;;;16.50;99.90;;;;;;5054588;28;20474;-55